Time;durP1;ratioP1;P1;durP2;ratioP2;P2;SDS_P1;SDS_P2;PMS_P1;PMS_P2;Temp;Humidity;BMP_temperature;BMP_pressure;BME280_temperature;BME280_humidity;BME280_pressure;Samples;Min_cycle;Max_cycle;Signal;HPM_P1;HPM_P2
2022/08/19 00:01:30;;;;;;;9.07;5.13;;;;;;;14.28;41.98;100590.59;5033227;28;20041;-76
2022/08/19 00:04:01;;;;;;;9.57;4.57;;;;;;;14.32;42.01;100597.47;5033720;28;20102;-77
2022/08/19 00:06:28;;;;;;;9.75;3.85;;;;;;;14.33;41.90;100604.59;5031690;28;20111;-75
2022/08/19 00:08:56;;;;;;;6.18;3.92;;;;;;;14.30;41.97;100610.19;5031766;28;20049;-77
2022/08/19 00:11:22;;;;;;;20.48;3.80;;;;;;;14.06;43.04;100601.25;5033570;28;20049;-77
2022/08/19 00:13:49;;;;;;;19.90;4.43;;;;;;;14.07;43.30;100613.75;5015268;28;20088;-75
2022/08/19 00:16:19;;;;;;;24.92;5.53;;;;;;;13.94;44.37;100612.91;5015207;28;20045;-76
2022/08/19 00:18:45;;;;;;;31.10;6.40;;;;;;;13.87;44.34;100615.19;5035718;28;20087;-76
2022/08/19 00:21:11;;;;;;;52.00;8.25;;;;;;;13.78;44.28;100605.13;5034887;28;20043;-76
2022/08/19 00:23:37;;;;;;;43.17;8.60;;;;;;;13.83;44.56;100617.25;5051681;28;20052;-76
2022/08/19 00:26:04;;;;;;;52.45;9.20;;;;;;;13.81;44.72;100623.72;5018398;28;20037;-77
2022/08/19 00:28:30;;;;;;;56.25;9.93;;;;;;;13.78;44.79;100630.19;5018236;28;20083;-76
2022/08/19 00:30:57;;;;;;;43.00;10.30;;;;;;;13.74;45.14;100641.28;5035022;28;20049;-76
2022/08/19 00:33:22;;;;;;;61.65;10.35;;;;;;;13.57;45.57;100626.34;5052574;28;20596;-76
2022/08/19 00:35:48;;;;;;;61.08;10.52;;;;;;;13.60;45.90;100648.47;5051376;28;20068;-76
2022/08/19 00:38:14;;;;;;;58.72;10.32;;;;;;;13.57;45.60;100654.06;5051429;28;20072;-76
2022/08/19 00:40:46;;;;;;;56.25;10.43;;;;;;;13.58;45.27;100660.34;5038686;28;20045;-76
2022/08/19 00:43:13;;;;;;;62.00;10.40;;;;;;;13.59;45.41;100662.03;5022659;28;20041;-77
2022/08/19 00:45:41;;;;;;;59.47;10.82;;;;;;;13.61;45.45;100665.47;5056178;28;20076;-76
2022/08/19 00:48:08;;;;;;;51.20;11.30;;;;;;;13.52;45.94;100656.25;5055121;28;20057;-76
2022/08/19 00:50:34;;;;;;;66.03;11.02;;;;;;;13.53;46.13;100668.69;5038726;28;20399;-77
2022/08/19 00:53:03;;;;;;;62.10;12.40;;;;;;;13.55;46.47;100672.16;5056827;28;20554;-76
2022/08/19 00:55:32;;;;;;;54.47;10.27;;;;;;;13.44;45.91;100660.44;5038443;28;20052;-76
2022/08/19 00:58:03;;;;;;;56.00;10.80;;;;;;;13.54;46.07;100674.91;5057867;28;20041;-76
2022/08/19 01:00:30;;;;;;;72.90;11.63;;;;;;;13.53;46.08;100678.59;5026014;28;20095;-77
2022/08/19 01:02:57;;;;;;;56.65;10.10;;;;;;;13.53;46.20;100679.44;5058591;28;20049;-76
2022/08/19 01:05:28;;;;;;;49.38;9.88;;;;;;;13.49;46.15;100671.72;5060722;28;20059;-76
2022/08/19 01:07:56;;;;;;;49.90;9.85;;;;;;;13.49;46.53;100690.53;5060217;28;20049;-77
2022/08/19 01:10:27;;;;;;;37.50;9.48;;;;;;;13.46;46.71;100688.03;5040666;28;20044;-78
2022/08/19 01:12:55;;;;;;;37.90;8.32;;;;;;;13.49;46.57;100688.69;5022319;28;20048;-76
2022/08/19 01:15:28;;;;;;;37.92;7.20;;;;;;;13.48;46.28;100691.50;5021927;28;20041;-76
2022/08/19 01:17:56;;;;;;;27.83;7.75;;;;;;;13.46;46.40;100685.34;5038283;28;20045;-76
2022/08/19 01:20:24;;;;;;;20.48;6.32;;;;;;;13.38;46.73;100702.00;5055051;28;20064;-75
2022/08/19 01:22:53;;;;;;;26.27;7.53;;;;;;;13.34;47.47;100701.38;5038651;28;20140;-76
2022/08/19 01:25:24;;;;;;;40.60;7.93;;;;;;;13.32;47.12;100708.69;5055091;28;20044;-76
2022/08/19 01:27:50;;;;;;;28.75;6.57;;;;;;;13.35;47.46;100713.84;5021575;28;20072;-77
2022/08/19 01:30:24;;;;;;;25.23;6.82;;;;;;;13.34;46.91;100705.88;5054631;28;20052;-75
2022/08/19 01:32:51;;;;;;;33.83;6.15;;;;;;;13.51;46.65;100719.00;5037947;28;20067;-76
2022/08/19 01:35:18;;;;;;;22.60;6.38;;;;;;;13.58;46.64;100719.44;5021738;28;20072;-76
2022/08/19 01:37:59;;;;;;;24.98;6.18;;;;;;;13.72;46.37;100716.59;5021665;28;20071;-75
2022/08/19 01:40:30;;;;;;;19.50;5.88;;;;;;;13.83;46.17;100730.13;5054860;28;20041;-75
2022/08/19 01:42:57;;;;;;;20.90;6.22;;;;;;;13.87;46.21;100740.69;5037833;28;20036;-76
2022/08/19 01:45:26;;;;;;;22.80;5.80;;;;;;;13.91;45.80;100748.41;5054593;28;20131;-76
2022/08/19 01:47:53;;;;;;;20.23;6.60;;;;;;;13.91;45.92;100743.03;5021105;28;20052;-76
2022/08/19 01:50:19;;;;;;;26.08;5.90;;;;;;;13.84;45.82;100733.69;5020695;28;20049;-76
2022/08/19 01:52:45;;;;;;;19.73;5.53;;;;;;;13.96;46.17;100761.53;5020767;28;20392;-76
2022/08/19 01:55:15;;;;;;;19.95;4.72;;;;;;;13.94;46.01;100763.47;5037595;28;20102;-76
2022/08/19 01:57:46;;;;;;;20.23;4.88;;;;;;;13.88;46.10;100761.19;5055129;28;20045;-76
2022/08/19 02:00:15;;;;;;;18.77;5.03;;;;;;;13.79;46.66;100766.25;5055290;28;20052;-76
2022/08/19 02:02:42;;;;;;;22.98;5.72;;;;;;;13.75;47.01;100774.66;5054080;28;20044;-76
2022/08/19 02:05:08;;;;;;;19.80;5.78;;;;;;;13.71;47.23;100763.25;5044305;28;20095;-76
2022/08/19 02:07:35;;;;;;;20.65;5.75;;;;;;;13.73;47.27;100766.72;5017842;28;20045;-76
2022/08/19 02:10:08;;;;;;;30.02;6.85;;;;;;;13.71;47.35;100774.00;5034120;28;20516;-76
2022/08/19 02:12:35;;;;;;;38.13;7.70;;;;;;;13.66;47.75;100770.81;5018280;28;20041;-76
2022/08/19 02:15:02;;;;;;;39.20;8.07;;;;;;;13.60;47.97;100772.06;5017875;28;20389;-76
2022/08/19 02:17:29;;;;;;;26.35;8.57;;;;;;;13.60;48.11;100784.66;5034026;28;20033;-76
2022/08/19 02:19:56;;;;;;;32.97;7.97;;;;;;;13.60;47.69;100787.34;5035264;28;20061;-76
2022/08/19 02:22:25;;;;;;;27.40;8.38;;;;;;;13.59;47.87;100796.38;5033833;28;20159;-76
2022/08/19 02:24:52;;;;;;;31.50;8.35;;;;;;;13.66;47.39;100792.28;5033430;28;20447;-77
2022/08/19 02:27:18;;;;;;;29.98;7.80;;;;;;;13.63;47.36;100779.06;5017018;28;20385;-76
2022/08/19 02:29:46;;;;;;;33.10;7.20;;;;;;;13.70;47.72;100809.91;5033634;28;20156;-76
2022/08/19 02:32:13;;;;;;;24.83;7.10;;;;;;;13.73;47.40;100803.47;5034575;28;20091;-76
2022/08/19 02:34:39;;;;;;;23.67;6.50;;;;;;;13.81;47.15;100801.97;5000901;28;20098;-76
2022/08/19 02:37:05;;;;;;;24.42;6.20;;;;;;;13.85;47.09;100806.16;5034742;28;20124;-77
2022/08/19 02:39:31;;;;;;;33.35;6.80;;;;;;;13.97;46.73;100812.50;5016939;28;20067;-78
2022/08/19 02:41:59;;;;;;;30.15;7.43;;;;;;;14.07;46.63;100818.09;5033376;28;20404;-78
2022/08/19 02:44:25;;;;;;;37.78;6.53;;;;;;;14.09;46.61;100817.00;5034306;28;20056;-78
2022/08/19 02:46:51;;;;;;;35.10;7.43;;;;;;;14.36;46.45;100812.44;5016760;28;20080;-76
2022/08/19 02:49:17;;;;;;;33.40;7.28;;;;;;;14.36;46.12;100807.06;5034240;28;20480;-76
2022/08/19 02:51:45;;;;;;;33.03;8.52;;;;;;;14.36;46.31;100817.81;5032949;28;20053;-76
2022/08/19 02:54:12;;;;;;;27.42;7.88;;;;;;;14.34;46.54;100821.47;5033069;28;20045;-77
2022/08/19 02:56:40;;;;;;;51.75;7.18;;;;;;;14.25;46.61;100829.34;5032977;28;20050;-79
2022/08/19 02:59:10;;;;;;;36.55;7.38;;;;;;;14.20;47.07;100824.28;5038671;28;20188;-78
2022/08/19 03:01:38;;;;;;;34.63;7.28;;;;;;;14.23;46.80;100829.47;5049934;28;20194;-79
2022/08/19 03:04:06;;;;;;;44.90;6.82;;;;;;;14.40;46.45;100830.06;5035390;28;20090;-87
2022/08/19 03:06:32;;;;;;;29.35;6.75;;;;;;;14.59;45.75;100822.41;5053250;28;20068;-77
2022/08/19 03:08:58;;;;;;;31.80;6.63;;;;;;;14.73;45.34;100816.88;5061768;28;20404;-79
2022/08/19 03:11:27;;;;;;;37.65;5.82;;;;;;;14.99;45.19;100828.41;5019438;28;20041;-78
2022/08/19 03:13:54;;;;;;;32.42;6.57;;;;;;;15.02;44.54;100819.25;5019480;28;20045;-78
2022/08/19 03:16:22;;;;;;;25.15;6.15;;;;;;;15.02;45.03;100830.00;5036773;28;20042;-77
2022/08/19 03:18:49;;;;;;;21.75;6.13;;;;;;;14.99;44.60;100827.53;5053653;28;20143;-79
2022/08/19 03:21:25;;;;;;;37.30;5.22;;;;;;;15.08;43.61;100826.84;5035629;28;20037;-82
2022/08/19 03:23:56;;;;;;;19.27;4.38;;;;;;;15.05;43.30;100821.72;5035822;28;20073;-80
2022/08/19 03:26:22;;;;;;;14.75;3.50;;;;;;;15.15;41.43;100817.31;5052550;28;20087;-80
2022/08/19 03:28:49;;;;;;;19.40;4.35;;;;;;;15.38;41.92;100836.25;5046435;28;20465;-79
2022/08/19 03:31:18;;;;;;;9.57;3.90;;;;;;;15.49;41.07;100841.69;5047028;28;20072;-78
2022/08/19 03:33:45;;;;;;;9.98;3.10;;;;;;;15.57;40.72;100831.22;5052865;28;20478;-78
2022/08/19 03:36:17;;;;;;;11.65;2.90;;;;;;;15.78;40.44;100848.44;5053422;28;20080;-79
2022/08/19 03:38:46;;;;;;;10.15;2.67;;;;;;;15.89;40.21;100839.50;5036292;28;20105;-78
2022/08/19 03:41:16;;;;;;;6.32;2.33;;;;;;;15.94;39.38;100848.06;5052234;28;20466;-80
2022/08/19 03:43:42;;;;;;;11.30;2.20;;;;;;;16.06;39.09;100862.47;5019001;28;20044;-74
2022/08/19 03:46:13;;;;;;;10.90;2.17;;;;;;;16.12;38.45;100853.88;5051919;28;20057;-80
2022/08/19 03:48:41;;;;;;;3.85;2.28;;;;;;;16.12;38.81;100848.47;5053030;28;20492;-76
2022/08/19 03:51:08;;;;;;;14.70;2.10;;;;;;;16.31;38.36;100849.72;5051717;28;20048;-76
2022/08/19 03:53:35;;;;;;;8.40;2.10;;;;;;;16.49;38.05;100848.22;5053030;28;20049;-76
2022/08/19 03:56:01;;;;;;;8.52;2.40;;;;;;;16.57;38.09;100856.56;5051864;28;20131;-75
2022/08/19 03:58:29;;;;;;;6.35;2.20;;;;;;;16.67;37.75;100857.53;5051766;28;20051;-77
2022/08/19 04:00:56;;;;;;;11.07;2.15;;;;;;;16.82;37.38;100865.41;5034939;28;20037;-76
2022/08/19 04:03:24;;;;;;;8.55;2.33;;;;;;;16.85;37.40;100867.84;5035073;28;20041;-76
2022/08/19 04:05:50;;;;;;;9.25;2.10;;;;;;;16.93;37.23;100873.50;5035620;28;20049;-77
2022/08/19 04:08:19;;;;;;;5.57;2.17;;;;;;;17.04;37.23;100865.34;5023020;28;20063;-76
2022/08/19 04:10:47;;;;;;;6.80;2.08;;;;;;;17.10;36.75;100872.06;5052694;28;20049;-75
2022/08/19 04:13:15;;;;;;;7.65;1.90;;;;;;;17.11;36.73;100862.97;5033642;28;20574;-76
2022/08/19 04:15:42;;;;;;;7.63;2.10;;;;;;;17.15;36.32;100869.84;5033231;28;20508;-76
2022/08/19 04:18:10;;;;;;;5.13;2.38;;;;;;;17.08;36.02;100872.22;5049676;28;20040;-77
2022/08/19 04:20:44;;;;;;;12.00;3.15;;;;;;;17.08;36.46;100874.91;5049798;28;20052;-78
2022/08/19 04:23:11;;;;;;;4.82;2.00;;;;;;;17.22;36.06;100879.16;5049975;28;20071;-76
2022/08/19 04:25:43;;;;;;;9.27;1.98;;;;;;;17.21;36.10;100886.41;5033371;28;20115;-76
2022/08/19 04:28:11;;;;;;;3.55;1.75;;;;;;;17.33;36.09;100886.38;5034720;28;20070;-77
2022/08/19 04:30:49;;;;;;;2.95;1.77;;;;;;;17.40;35.36;100888.44;5051400;28;20052;-76
2022/08/19 04:33:18;;;;;;;6.05;2.05;;;;;;;17.45;35.20;100888.91;5018330;28;20040;-75
2022/08/19 04:35:48;;;;;;;8.50;2.00;;;;;;;17.41;34.76;100886.56;5051131;28;20052;-76
2022/08/19 04:38:16;;;;;;;12.55;2.42;;;;;;;17.32;34.98;100898.19;5052389;28;20048;-75
2022/08/19 04:43:30;;;;;;;10.15;1.98;;;;;;;17.37;34.36;100891.38;5052318;28;20040;-77
2022/08/19 04:45:56;;;;;;;10.02;2.13;;;;;;;17.40;34.73;100891.13;5052226;28;20044;-76
2022/08/19 04:48:28;;;;;;;7.13;2.00;;;;;;;17.59;34.72;100892.28;5050877;28;20048;-76
2022/08/19 04:50:58;;;;;;;8.98;2.70;;;;;;;17.81;34.72;100904.88;5052268;28;20075;-76
2022/08/19 04:53:29;;;;;;;6.95;2.38;;;;;;;17.97;34.53;100902.56;5035084;28;20151;-77
2022/08/19 04:55:57;;;;;;;9.13;2.80;;;;;;;18.09;35.02;100900.63;5034907;28;20452;-76
2022/08/19 04:58:24;;;;;;;7.03;2.15;;;;;;;18.22;34.51;100905.84;5052354;28;20052;-76
2022/08/19 05:00:50;;;;;;;9.15;2.40;;;;;;;18.23;34.81;100891.31;5051025;28;20043;-76
2022/08/19 05:03:16;;;;;;;7.07;2.50;;;;;;;18.41;34.48;100897.81;5034327;28;20496;-77
2022/08/19 05:05:44;;;;;;;9.23;2.40;;;;;;;18.35;34.81;100901.06;5034701;28;20164;-76
2022/08/19 05:08:19;;;;;;;13.60;3.20;;;;;;;18.28;34.59;100908.00;5034248;28;20041;-76
2022/08/19 05:10:50;;;;;;;5.90;2.85;;;;;;;18.24;34.95;100903.84;5052366;28;20045;-76
2022/08/19 05:13:18;;;;;;;9.70;2.20;;;;;;;17.95;34.79;100896.44;5034122;28;20036;-76
2022/08/19 05:15:53;;;;;;;7.57;2.13;;;;;;;18.01;35.19;100909.41;5034372;28;20049;-76
2022/08/19 05:23:54;;;;;;;6.72;2.45;;;;;;;18.50;35.08;100909.69;5034469;28;20048;-77
2022/08/19 05:26:20;;;;;;;9.25;2.20;;;;;;;18.74;34.81;100914.81;5035331;28;20036;-75
2022/08/19 05:28:46;;;;;;;8.50;2.83;;;;;;;18.93;34.19;100914.88;5054831;28;20567;-76
2022/08/19 05:31:12;;;;;;;10.45;2.10;;;;;;;18.95;33.98;100921.00;5054838;28;20044;-76
2022/08/19 05:33:39;;;;;;;3.75;1.70;;;;;;;18.97;34.02;100919.03;5038314;28;20053;-76
2022/08/19 05:36:07;;;;;;;8.00;2.65;;;;;;;19.06;33.83;100917.31;5055328;28;20404;-76
2022/08/19 05:38:35;;;;;;;9.20;2.80;;;;;;;19.08;33.46;100918.91;5054283;28;20045;-76
2022/08/19 05:41:12;;;;;;;11.25;2.55;;;;;;;18.92;33.53;100913.19;5054149;28;20044;-76
2022/08/19 05:43:38;;;;;;;8.70;2.35;;;;;;;18.30;34.13;100920.44;5038168;28;20045;-75
2022/08/19 05:46:06;;;;;;;8.27;2.30;;;;;;;17.98;34.86;100909.72;5055638;28;20098;-75
2022/08/19 05:48:34;;;;;;;6.45;2.22;;;;;;;18.17;34.78;100912.53;5021018;28;20098;-75
2022/08/19 05:51:05;;;;;;;9.90;2.67;;;;;;;18.47;34.67;100908.13;5037146;28;20059;-76
2022/08/19 05:53:30;;;;;;;13.05;2.78;;;;;;;18.81;34.59;100907.88;5055435;28;20049;-75
2022/08/19 05:55:56;;;;;;;6.35;2.28;;;;;;;18.94;33.77;100905.75;5037746;28;20044;-76
2022/08/19 05:58:23;;;;;;;6.40;2.60;;;;;;;18.91;34.44;100906.03;5053925;28;20095;-77
2022/08/19 06:00:52;;;;;;;15.17;2.77;;;;;;;18.90;34.35;100904.31;5053986;28;20126;-77
2022/08/19 06:03:18;;;;;;;7.70;2.55;;;;;;;19.07;34.19;100909.06;5053978;28;20506;-76
2022/08/19 06:05:43;;;;;;;4.03;2.10;;;;;;;19.06;33.87;100912.75;5037360;28;20128;-77
2022/08/19 06:08:10;;;;;;;5.53;2.05;;;;;;;19.23;33.86;100903.09;5053668;28;20045;-76
2022/08/19 06:10:36;;;;;;;9.02;2.10;;;;;;;19.45;33.39;100899.28;5054987;28;20067;-76
2022/08/19 06:13:02;;;;;;;12.70;2.17;;;;;;;19.31;33.57;100905.13;5037080;28;20127;-76
2022/08/19 06:15:28;;;;;;;9.02;2.00;;;;;;;19.39;33.48;100902.53;5037034;28;20139;-76
2022/08/19 06:17:55;;;;;;;8.30;2.40;;;;;;;19.38;33.17;100896.25;5054052;28;20045;-78
2022/08/19 06:20:21;;;;;;;13.52;2.45;;;;;;;19.51;33.60;100897.84;5053306;28;20048;-77
2022/08/19 06:22:52;;;;;;;5.30;2.20;;;;;;;19.72;33.54;100892.31;5020525;28;20144;-77
2022/08/19 06:25:18;;;;;;;8.68;3.13;;;;;;;19.98;32.79;100895.28;5037429;28;20052;-75
2022/08/19 06:27:44;;;;;;;9.98;2.60;;;;;;;20.11;32.60;100888.50;5020382;28;20388;-76
2022/08/19 06:30:11;;;;;;;10.68;2.80;;;;;;;20.26;32.55;100896.19;5053346;28;20085;-77
2022/08/19 06:32:38;;;;;;;9.68;2.80;;;;;;;20.38;32.04;100887.72;5054497;28;20056;-75
2022/08/19 06:35:05;;;;;;;10.10;2.70;;;;;;;20.57;32.09;100888.66;5036295;28;20045;-76
2022/08/19 06:37:31;;;;;;;14.07;3.30;;;;;;;20.68;31.76;100890.34;5020155;28;20143;-75
2022/08/19 06:39:57;;;;;;;14.77;3.60;;;;;;;20.25;31.05;100892.63;5053670;28;20128;-77
2022/08/19 06:42:23;;;;;;;17.42;3.10;;;;;;;20.13;32.07;100886.53;5054814;28;20040;-77
2022/08/19 06:44:49;;;;;;;12.07;3.42;;;;;;;20.51;32.22;100878.41;5020006;28;20136;-76
2022/08/19 06:47:19;;;;;;;21.48;3.90;;;;;;;20.49;30.50;100864.97;5052562;28;20141;-76
2022/08/19 06:49:45;;;;;;;15.07;3.63;;;;;;;19.83;31.51;100889.44;5019688;28;20041;-76
2022/08/19 06:52:12;;;;;;;17.02;3.80;;;;;;;19.74;31.73;100901.13;5052636;28;20136;-76
2022/08/19 06:54:41;;;;;;;7.20;2.65;;;;;;;19.98;31.86;100893.41;5035942;28;20144;-76
2022/08/19 06:57:08;;;;;;;10.70;2.72;;;;;;;20.29;31.66;100901.34;5054022;28;20076;-75
2022/08/19 06:59:35;;;;;;;9.90;3.20;;;;;;;20.51;31.64;100905.59;5052835;28;20079;-76
2022/08/19 07:02:07;;;;;;;7.90;2.50;;;;;;;20.60;31.59;100905.53;5036090;28;20040;-76
2022/08/19 07:04:35;;;;;;;13.80;3.00;;;;;;;20.63;31.16;100904.38;5053098;28;20067;-75
2022/08/19 07:07:08;;;;;;;8.38;2.63;;;;;;;20.70;31.40;100896.50;5052400;28;20139;-76
2022/08/19 07:09:37;;;;;;;14.68;2.80;;;;;;;21.08;31.60;100904.41;5019584;28;20534;-76
2022/08/19 07:12:06;;;;;;;21.08;3.20;;;;;;;21.39;31.03;100900.53;5035847;28;20044;-76
2022/08/19 07:14:36;;;;;;;16.77;3.08;;;;;;;21.66;30.71;100905.03;5035784;28;20135;-76
2022/08/19 07:17:05;;;;;;;10.55;2.53;;;;;;;21.87;30.33;100904.69;5053613;28;20079;-75
2022/08/19 07:19:32;;;;;;;6.50;2.00;;;;;;;21.33;30.15;100912.91;5035936;28;20477;-75
2022/08/19 07:22:01;;;;;;;7.97;1.95;;;;;;;21.25;30.62;100907.31;5019243;28;20086;-76
2022/08/19 07:24:27;;;;;;;8.57;2.33;;;;;;;21.39;30.66;100895.09;5035573;28;20067;-76
2022/08/19 07:27:00;;;;;;;8.32;2.30;;;;;;;21.75;30.69;100898.66;5035593;28;20464;-77
2022/08/19 07:29:28;;;;;;;8.90;2.13;;;;;;;22.03;30.24;100905.66;5052471;28;20053;-77
2022/08/19 07:31:56;;;;;;;7.05;2.03;;;;;;;22.37;30.40;100898.59;5052113;28;20048;-77
2022/08/19 07:34:23;;;;;;;7.93;2.17;;;;;;;22.73;29.65;100896.59;5035497;28;20052;-76
2022/08/19 07:36:50;;;;;;;7.72;2.47;;;;;;;22.95;29.00;100901.47;5035539;28;20041;-76
2022/08/19 07:39:22;;;;;;;11.25;2.75;;;;;;;22.74;28.70;100892.84;5018964;28;20523;-77
2022/08/19 07:41:50;;;;;;;23.75;2.75;;;;;;;21.90;29.49;100880.75;5051998;28;20045;-76
2022/08/19 07:44:20;;;;;;;17.70;2.30;;;;;;;21.44;30.22;100888.19;5053119;28;20526;-77
2022/08/19 07:46:49;;;;;;;6.47;1.98;;;;;;;21.05;30.82;100907.44;5053612;28;20118;-76
2022/08/19 07:49:18;;;;;;;7.50;2.20;;;;;;;20.99;30.97;100899.91;5051508;28;20045;-77
2022/08/19 07:51:51;;;;;;;9.80;2.08;;;;;;;21.08;31.36;100898.97;5035015;28;20452;-77
2022/08/19 07:54:19;;;;;;;9.02;2.03;;;;;;;21.26;31.01;100903.59;5018816;28;20044;-76
2022/08/19 07:56:50;;;;;;;9.25;1.90;;;;;;;21.18;31.26;100900.81;5052232;28;20041;-76
2022/08/19 07:59:17;;;;;;;10.18;2.15;;;;;;;21.54;30.67;100907.97;5053522;28;20047;-76
2022/08/19 08:01:44;;;;;;;12.60;2.72;;;;;;;21.61;30.94;100912.81;5035465;28;20127;-76
2022/08/19 08:09:42;;;;;;;15.10;2.97;;;;;;;21.55;30.90;100904.28;5052369;28;20491;-77
2022/08/19 08:12:15;;;;;;;14.73;2.53;;;;;;;21.65;30.76;100908.75;5035429;28;20053;-76
2022/08/19 08:14:50;;;;;;;16.73;2.30;;;;;;;21.61;31.38;100902.78;5051857;28;20496;-77
2022/08/19 08:17:19;;;;;;;9.70;2.20;;;;;;;21.92;30.20;100903.19;5035647;28;20045;-76
2022/08/19 08:19:50;;;;;;;7.00;2.92;;;;;;;22.28;30.07;100900.44;5052624;28;20055;-76
2022/08/19 08:25:13;;;;;;;15.63;2.53;;;;;;;22.59;29.28;100889.88;5035007;28;19938;-77
2022/08/19 08:27:41;;;;;;;11.27;2.03;;;;;;;22.61;29.84;100897.91;5052168;28;20132;-77
2022/08/19 08:30:18;;;;;;;11.30;2.25;;;;;;;22.88;29.37;100894.09;5019000;28;20045;-76
2022/08/19 08:32:45;;;;;;;12.10;1.98;;;;;;;23.23;28.66;100893.03;5051388;28;20045;-77
2022/08/19 08:35:15;;;;;;;8.75;2.80;;;;;;;22.98;28.63;100901.16;5051218;28;20092;-76
2022/08/19 08:37:43;;;;;;;7.65;2.00;;;;;;;22.66;29.11;100903.72;5034704;28;20041;-77
2022/08/19 08:40:31;;;;;;;9.43;2.30;;;;;;;22.71;29.22;100902.19;5035110;28;20070;-76
2022/08/19 08:43:08;;;;;;;9.27;2.35;;;;;;;22.48;29.58;100887.44;5034183;28;20060;-77
2022/08/19 08:45:41;;;;;;;11.23;2.10;;;;;;;22.88;29.14;100889.47;5052636;28;20080;-77
2022/08/19 08:48:37;;;;;;;5.63;2.40;;;;;;;23.52;28.63;100892.56;5017443;28;20063;-77
2022/08/19 08:51:14;;;;;;;12.63;3.30;;;;;;;24.00;28.24;100896.34;5017943;28;20087;-77
2022/08/19 08:53:41;;;;;;;10.77;2.42;;;;;;;23.91;27.71;100891.91;5034564;28;20126;-78
2022/08/19 08:56:12;;;;;;;14.50;2.42;;;;;;;23.67;27.70;100892.78;5051183;28;20048;-77
2022/08/19 08:58:45;;;;;;;5.38;2.25;;;;;;;22.90;28.64;100895.59;5034560;28;20128;-77
2022/08/19 09:01:11;;;;;;;7.13;2.33;;;;;;;23.20;28.60;100890.63;5035473;28;20051;-78
2022/08/19 09:03:41;;;;;;;7.60;2.10;;;;;;;23.29;28.50;100891.50;5038488;28;20450;-77
2022/08/19 09:06:37;;;;;;;10.55;2.05;;;;;;;23.66;27.92;100891.03;5038503;28;20041;-79
2022/08/19 09:09:18;;;;;;;10.30;1.88;;;;;;;23.73;27.67;100883.88;5022954;28;20072;-77
2022/08/19 09:11:58;;;;;;;6.07;2.28;;;;;;;23.91;27.80;100883.72;5054688;28;20044;-77
2022/08/19 09:14:58;;;;;;;4.15;2.15;;;;;;;24.41;27.10;100878.03;5038630;28;20048;-78
2022/08/19 09:17:30;;;;;;;7.68;2.60;;;;;;;24.72;26.74;100869.03;5047698;28;20052;-78
2022/08/19 09:20:07;;;;;;;10.38;2.55;;;;;;;25.01;26.42;100873.84;5055825;28;20044;-77
2022/08/19 09:22:33;;;;;;;6.95;2.20;;;;;;;24.96;26.00;100871.63;5054919;28;20049;-76
2022/08/19 09:24:59;;;;;;;7.18;2.13;;;;;;;24.30;26.56;100859.25;5038191;28;20123;-77
2022/08/19 09:27:29;;;;;;;4.32;1.98;;;;;;;23.83;27.10;100873.66;5038070;28;20121;-77
2022/08/19 09:29:55;;;;;;;9.27;1.98;;;;;;;24.15;27.25;100871.91;5054811;28;20067;-77
2022/08/19 09:32:22;;;;;;;12.20;2.15;;;;;;;24.65;26.56;100862.56;5021338;28;20488;-77
2022/08/19 09:34:48;;;;;;;5.78;2.30;;;;;;;24.84;26.09;100875.81;5038088;28;20120;-77
2022/08/19 09:37:14;;;;;;;9.07;2.28;;;;;;;24.89;25.92;100876.09;5054097;28;20190;-77
2022/08/19 09:39:42;;;;;;;15.93;2.53;;;;;;;25.09;25.72;100868.31;5037770;28;20041;-77
2022/08/19 09:42:13;;;;;;;19.48;2.63;;;;;;;24.70;26.08;100892.94;5054489;28;20083;-77
2022/08/19 09:44:40;;;;;;;12.13;2.05;;;;;;;24.25;26.08;100888.94;5054166;28;20043;-77
2022/08/19 09:47:07;;;;;;;5.68;2.10;;;;;;;24.03;26.48;100886.94;5055497;28;20055;-78
2022/08/19 09:49:33;;;;;;;6.93;2.10;;;;;;;24.30;26.50;100880.22;5054189;28;20037;-77
2022/08/19 09:51:59;;;;;;;4.95;1.98;;;;;;;24.84;25.98;100889.47;5037504;28;20140;-77
2022/08/19 09:54:26;;;;;;;6.70;1.90;;;;;;;25.05;25.76;100890.72;5054077;28;20086;-77
2022/08/19 09:56:54;;;;;;;10.95;2.75;;;;;;;25.27;25.08;100894.56;5037509;28;20041;-77
2022/08/19 09:59:21;;;;;;;14.20;2.70;;;;;;;25.20;25.26;100889.00;5055042;28;20052;-77
2022/08/19 10:01:47;;;;;;;6.88;2.55;;;;;;;25.70;24.63;100876.63;5037604;28;20048;-76
2022/08/19 10:04:13;;;;;;;10.25;2.55;;;;;;;26.06;24.18;100884.19;5037274;28;20407;-77
2022/08/19 10:06:42;;;;;;;11.63;2.20;;;;;;;25.96;23.96;100883.63;5037862;28;20416;-77
2022/08/19 10:09:10;;;;;;;7.93;2.10;;;;;;;25.49;24.54;100876.47;5055400;28;20045;-76
2022/08/19 10:11:40;;;;;;;15.48;2.20;;;;;;;25.79;24.35;100883.75;5053165;28;20080;-76
2022/08/19 10:14:07;;;;;;;5.70;1.77;;;;;;;25.91;23.99;100878.69;5037692;28;20056;-76
2022/08/19 10:16:35;;;;;;;7.93;2.00;;;;;;;26.05;24.01;100866.06;5036992;28;20048;-76
2022/08/19 10:19:02;;;;;;;11.70;1.98;;;;;;;26.15;23.58;100878.47;5053651;28;20037;-76
2022/08/19 10:21:30;;;;;;;10.02;3.53;;;;;;;26.15;23.51;100872.97;5053208;28;20508;-77
2022/08/19 10:24:03;;;;;;;5.65;2.13;;;;;;;26.63;23.95;100880.88;5021481;28;20076;-77
2022/08/19 10:26:36;;;;;;;4.30;2.03;;;;;;;27.39;22.93;100875.06;5036615;28;20056;-77
2022/08/19 10:29:04;;;;;;;4.80;1.70;;;;;;;27.95;22.14;100867.78;5053297;28;20166;-77
2022/08/19 10:31:33;;;;;;;4.38;2.20;;;;;;;27.84;21.87;100858.19;5020573;28;20095;-75
2022/08/19 10:34:00;;;;;;;11.50;2.30;;;;;;;27.70;22.32;100867.31;5054941;28;20515;-77
2022/08/19 10:36:35;;;;;;;7.72;2.05;;;;;;;27.62;21.99;100866.63;5020102;28;20044;-76
2022/08/19 10:39:09;;;;;;;4.28;1.83;;;;;;;27.46;22.10;100876.84;5036740;28;20522;-76
2022/08/19 10:41:39;;;;;;;4.43;1.92;;;;;;;28.09;21.40;100880.56;5053313;28;20041;-77
2022/08/19 10:44:08;;;;;;;10.55;1.75;;;;;;;28.36;21.22;100874.41;5037022;28;20469;-76
2022/08/19 10:46:41;;;;;;;;;;;;;;;28.61;20.88;100878.38;5020161;28;20472;-76
2022/08/19 10:49:13;;;;;;;15.13;2.15;;;;;;;28.77;20.82;100874.44;5037394;28;19920;-76
2022/08/19 10:57:15;;;;;;;10.52;2.20;;;;;;;27.92;21.74;100861.84;5036645;28;20053;-76
2022/08/19 10:59:41;;;;;;;15.40;2.60;;;;;;;28.42;21.48;100857.97;5053103;28;20056;-76
2022/08/19 11:02:11;;;;;;;7.93;1.98;;;;;;;28.70;21.73;100857.94;5036169;28;20045;-76
2022/08/19 11:04:40;;;;;;;18.75;2.05;;;;;;;28.75;21.60;100860.06;5036153;28;20513;-76
2022/08/19 11:07:07;;;;;;;7.50;1.98;;;;;;;28.78;21.22;100855.00;5036121;28;20040;-76
2022/08/19 11:09:40;;;;;;;10.48;2.30;;;;;;;28.86;21.40;100866.88;5019772;28;20047;-76
2022/08/19 11:12:09;;;;;;;10.00;2.20;;;;;;;29.59;21.06;100859.69;5052366;28;20565;-76
2022/08/19 11:14:37;;;;;;;7.78;1.80;;;;;;;30.21;19.99;100863.13;5019883;28;20065;-77
2022/08/19 11:17:05;;;;;;;6.23;1.67;;;;;;;29.92;19.96;100869.88;5019932;28;20060;-76
2022/08/19 11:19:35;;;;;;;5.10;1.80;;;;;;;30.27;19.83;100861.38;5036173;28;20075;-76
2022/08/19 11:22:03;;;;;;;5.95;1.90;;;;;;;30.87;19.32;100864.84;5019492;28;20041;-76
2022/08/19 11:24:31;;;;;;;8.00;1.88;;;;;;;30.32;19.39;100862.44;5034955;28;20064;-75
2022/08/19 11:27:09;;;;;;;4.85;1.90;;;;;;;29.49;20.17;100870.28;5036787;28;20041;-76
2022/08/19 11:29:38;;;;;;;11.23;2.20;;;;;;;30.22;19.85;100868.41;5019237;28;20079;-75
2022/08/19 11:32:08;;;;;;;7.25;2.05;;;;;;;31.20;18.76;100871.03;5035611;28;20040;-76
2022/08/19 11:34:36;;;;;;;8.50;2.03;;;;;;;31.40;18.06;100870.94;5019635;28;20037;-75
2022/08/19 11:37:04;;;;;;;9.80;2.08;;;;;;;31.18;18.36;100877.84;5053479;28;20045;-76
2022/08/19 11:39:35;;;;;;;10.02;2.20;;;;;;;31.20;18.48;100872.97;5020016;28;20040;-77
2022/08/19 11:42:54;;;;;;;7.80;2.00;;;;;;;32.08;18.10;100873.00;5035683;28;20087;-76
2022/08/19 11:44:51;;;;;;;7.68;2.03;;;;;;;32.36;17.39;100864.19;5035727;28;20048;-76
2022/08/19 11:47:20;;;;;;;6.07;2.30;;;;;;;31.87;17.52;100859.56;5035428;28;20064;-76
2022/08/19 11:49:49;;;;;;;11.93;2.30;;;;;;;31.51;17.87;100866.63;5052008;28;20045;-75
2022/08/19 11:52:17;;;;;;;;;;;;;;;30.99;18.19;100868.59;5019610;28;20136;-76